createdAt,value
2017-07-26T00:00:44.732Z,19.70
2017-07-26T00:03:13.022Z,19.70
2017-07-26T00:05:41.305Z,19.70
2017-07-26T00:08:09.586Z,19.70
2017-07-26T00:10:38.605Z,19.70
2017-07-26T00:13:06.908Z,19.70
2017-07-26T00:15:35.190Z,19.70
2017-07-26T00:18:04.272Z,19.80
2017-07-26T00:20:33.368Z,19.80
2017-07-26T00:23:01.649Z,19.80
2017-07-26T00:25:29.905Z,19.80
2017-07-26T00:27:58.206Z,19.80
2017-07-26T00:30:26.486Z,19.90
2017-07-26T00:32:55.512Z,19.80
2017-07-26T00:35:23.777Z,19.80
2017-07-26T00:37:52.023Z,19.80
2017-07-26T00:40:20.297Z,19.80
2017-07-26T00:42:48.563Z,19.80
2017-07-26T00:45:16.817Z,19.60
2017-07-26T00:47:45.064Z,19.70
2017-07-26T00:50:13.388Z,19.70
2017-07-26T00:52:42.413Z,19.70
2017-07-26T00:55:10.694Z,19.70
2017-07-26T00:57:38.961Z,19.70
2017-07-26T01:00:07.214Z,19.60
2017-07-26T01:02:35.464Z,19.60
2017-07-26T01:05:03.784Z,19.60
2017-07-26T01:07:32.076Z,19.60
2017-07-26T01:10:00.412Z,19.50
2017-07-26T01:12:28.714Z,19.50
2017-07-26T01:14:57.002Z,19.50
2017-07-26T01:17:26.058Z,19.50
2017-07-26T01:19:54.330Z,19.50
2017-07-26T01:22:22.677Z,19.50
2017-07-26T01:24:50.959Z,19.50
2017-07-26T01:27:20.030Z,19.40
2017-07-26T01:29:48.285Z,19.40
2017-07-26T01:32:16.532Z,19.30
2017-07-26T01:34:44.869Z,19.40
2017-07-26T01:37:13.141Z,19.40
2017-07-26T01:39:41.396Z,19.40
2017-07-26T01:42:09.668Z,19.40
2017-07-26T01:44:37.924Z,19.30
2017-07-26T01:47:06.226Z,19.20
2017-07-26T01:49:35.264Z,19.10
2017-07-26T01:52:03.519Z,19.00
2017-07-26T01:54:31.777Z,19.00
2017-07-26T01:57:00.061Z,18.90
2017-07-26T01:59:28.338Z,19.00
2017-07-26T02:01:57.358Z,19.10
2017-07-26T02:04:25.642Z,19.10
2017-07-26T02:06:53.893Z,19.10
2017-07-26T02:09:21.948Z,19.20
2017-07-26T02:11:50.216Z,19.20
2017-07-26T02:14:18.507Z,19.40
2017-07-26T02:16:47.586Z,19.90
2017-07-26T02:19:16.648Z,20.10
2017-07-26T02:21:44.921Z,20.10
2017-07-26T02:24:13.193Z,20.40
2017-07-26T02:26:41.457Z,20.60
2017-07-26T02:29:09.738Z,20.70
2017-07-26T02:31:38.016Z,20.90
2017-07-26T02:34:06.134Z,21.00
2017-07-26T02:36:34.470Z,21.20
2017-07-26T02:39:03.274Z,21.40
2017-07-26T02:41:31.589Z,21.40
2017-07-26T02:43:59.834Z,21.50
2017-07-26T02:46:28.124Z,21.60
2017-07-26T02:48:57.163Z,21.80
2017-07-26T02:51:25.442Z,21.70
2017-07-26T02:53:53.728Z,21.90
2017-07-26T02:56:22.782Z,22.00
2017-07-26T02:58:51.027Z,22.00
2017-07-26T03:01:19.999Z,22.10
2017-07-26T03:03:48.306Z,22.20
2017-07-26T03:06:16.616Z,22.30
2017-07-26T03:08:44.916Z,22.30
2017-07-26T03:11:13.184Z,22.40
2017-07-26T03:13:42.244Z,22.50
2017-07-26T03:16:10.531Z,22.50
2017-07-26T03:18:39.565Z,22.60
2017-07-26T03:21:08.538Z,22.60
2017-07-26T03:23:36.785Z,22.60
2017-07-26T03:26:05.057Z,22.70
2017-07-26T03:28:33.350Z,22.70
2017-07-26T03:31:02.394Z,22.80
2017-07-26T03:33:30.664Z,22.80
2017-07-26T03:35:58.923Z,22.80
2017-07-26T03:38:27.201Z,22.90
2017-07-26T03:40:55.462Z,22.90
2017-07-26T03:43:23.745Z,23.00
2017-07-26T03:45:51.997Z,23.00
2017-07-26T03:48:21.061Z,23.10
2017-07-26T03:50:50.109Z,23.10
2017-07-26T03:53:18.399Z,23.10
2017-07-26T03:55:46.665Z,23.20
2017-07-26T03:58:15.721Z,23.20
2017-07-26T04:00:44.058Z,23.20
2017-07-26T04:03:12.318Z,23.20
2017-07-26T04:05:40.561Z,23.30
2017-07-26T04:08:08.855Z,23.30
2017-07-26T04:10:37.162Z,23.30
2017-07-26T04:13:05.404Z,23.40
2017-07-26T04:15:34.433Z,23.50
2017-07-26T04:18:02.867Z,23.40
2017-07-26T04:20:31.121Z,23.50
2017-07-26T04:22:59.411Z,23.50
2017-07-26T04:25:27.711Z,23.50
2017-07-26T04:27:56.007Z,23.60
2017-07-26T04:30:24.300Z,23.60
2017-07-26T04:32:52.577Z,23.60
2017-07-26T04:35:20.824Z,23.60
2017-07-26T04:37:49.107Z,23.70
2017-07-26T04:40:17.406Z,23.70
2017-07-26T04:42:45.698Z,23.70
2017-07-26T04:45:13.945Z,23.70
2017-07-26T04:47:42.214Z,23.80
2017-07-26T04:50:10.456Z,23.80
2017-07-26T04:52:38.743Z,23.80
2017-07-26T04:55:07.023Z,23.80
2017-07-26T04:57:35.278Z,23.90
2017-07-26T05:00:03.564Z,23.90
2017-07-26T05:02:32.642Z,23.90
2017-07-26T05:05:01.695Z,23.90
2017-07-26T05:07:29.979Z,23.90
2017-07-26T05:09:59.009Z,24.00
2017-07-26T05:12:27.254Z,24.00
2017-07-26T05:14:55.505Z,24.00
2017-07-26T05:17:23.812Z,24.00
2017-07-26T05:19:52.102Z,24.00
2017-07-26T05:22:21.142Z,24.10
2017-07-26T05:24:49.446Z,24.10
2017-07-26T05:27:18.483Z,24.10
2017-07-26T05:29:46.717Z,24.10
2017-07-26T05:32:15.024Z,24.10
2017-07-26T05:34:43.319Z,24.20
2017-07-26T05:37:11.560Z,24.20
2017-07-26T05:39:40.636Z,24.20
2017-07-26T05:42:08.937Z,24.20
2017-07-26T05:44:37.186Z,24.20
2017-07-26T05:47:05.272Z,24.30
2017-07-26T05:49:33.520Z,24.30
2017-07-26T05:52:01.820Z,24.30
2017-07-26T05:54:30.854Z,24.30
2017-07-26T05:56:59.101Z,24.30
2017-07-26T05:59:27.433Z,24.30
2017-07-26T06:01:56.470Z,24.40
2017-07-26T06:04:24.758Z,24.30
2017-07-26T06:06:53.769Z,24.40
2017-07-26T06:09:22.066Z,24.40
2017-07-26T06:11:50.324Z,24.40
2017-07-26T06:14:18.577Z,24.40
2017-07-26T06:16:46.875Z,24.40
2017-07-26T06:19:15.888Z,24.50
2017-07-26T06:21:44.137Z,24.40
2017-07-26T06:24:12.242Z,24.50
2017-07-26T06:26:40.525Z,24.50
2017-07-26T06:29:08.781Z,24.50
2017-07-26T06:31:37.110Z,24.50
2017-07-26T06:34:05.357Z,24.60
2017-07-26T06:36:33.639Z,24.60
2017-07-26T06:39:01.989Z,24.60
2017-07-26T06:41:31.679Z,24.60
2017-07-26T06:43:59.963Z,24.50
2017-07-26T06:46:28.281Z,24.60
2017-07-26T06:48:56.572Z,24.60
2017-07-26T06:51:24.830Z,24.60
2017-07-26T06:53:53.130Z,24.60
2017-07-26T06:56:22.180Z,24.60
2017-07-26T06:58:50.442Z,24.60
2017-07-26T07:01:18.780Z,24.60
2017-07-26T07:03:47.053Z,24.60
2017-07-26T07:06:15.308Z,24.70
2017-07-26T07:08:43.614Z,24.70
2017-07-26T07:11:11.881Z,24.70
2017-07-26T07:13:40.174Z,24.80
2017-07-26T07:16:08.445Z,24.80
2017-07-26T07:18:36.702Z,24.80
2017-07-26T07:21:04.948Z,24.40
2017-07-26T07:23:33.209Z,23.80
2017-07-26T07:26:01.459Z,23.50
2017-07-26T07:28:29.750Z,23.20
2017-07-26T07:30:58.051Z,22.90
2017-07-26T07:33:27.064Z,22.50
2017-07-26T07:35:55.314Z,22.50
2017-07-26T07:38:23.610Z,22.30
2017-07-26T07:40:51.884Z,22.10
2017-07-26T07:43:20.149Z,22.00
2017-07-26T07:45:48.428Z,22.10
2017-07-26T07:48:17.458Z,22.50
2017-07-26T07:50:45.711Z,22.40
2017-07-26T07:53:13.994Z,22.70
2017-07-26T07:55:42.296Z,22.90
2017-07-26T07:58:10.599Z,23.00
2017-07-26T08:00:38.856Z,23.20
2017-07-26T08:03:07.146Z,23.30
2017-07-26T08:05:35.469Z,23.40
2017-07-26T08:08:03.745Z,23.50
2017-07-26T08:10:32.022Z,23.60
2017-07-26T08:13:00.479Z,23.70
2017-07-26T08:15:28.774Z,23.80
2017-07-26T08:17:57.831Z,23.90
2017-07-26T08:20:26.128Z,23.90
2017-07-26T08:22:54.213Z,24.00
2017-07-26T08:25:22.502Z,24.10
2017-07-26T08:27:50.790Z,24.10
2017-07-26T08:30:19.813Z,24.20
2017-07-26T08:32:48.067Z,24.20
2017-07-26T08:35:16.370Z,24.20
2017-07-26T08:37:45.408Z,24.30
2017-07-26T08:40:13.661Z,24.30
2017-07-26T08:42:41.962Z,24.30
2017-07-26T08:45:10.238Z,24.40
2017-07-26T08:47:39.290Z,24.40
2017-07-26T08:50:07.549Z,24.40
2017-07-26T08:52:35.816Z,24.50
2017-07-26T08:55:04.098Z,24.50
2017-07-26T08:57:33.112Z,24.60
2017-07-26T09:00:01.429Z,24.60
2017-07-26T09:02:30.313Z,24.70
2017-07-26T09:04:59.329Z,24.70
2017-07-26T09:07:27.635Z,24.70
2017-07-26T09:09:56.654Z,24.70
2017-07-26T09:12:24.905Z,24.70
2017-07-26T09:14:53.178Z,24.70
2017-07-26T09:17:21.420Z,24.80
2017-07-26T09:19:49.711Z,24.80
2017-07-26T09:22:18.022Z,24.80
2017-07-26T09:24:47.049Z,24.90
2017-07-26T09:27:15.338Z,24.80
2017-07-26T09:29:43.606Z,24.90
2017-07-26T09:32:11.857Z,24.90
2017-07-26T09:34:40.108Z,24.90
2017-07-26T09:37:08.373Z,24.90
2017-07-26T09:39:36.650Z,24.90
2017-07-26T09:42:05.706Z,24.90
2017-07-26T09:44:34.045Z,24.90
2017-07-26T09:47:02.335Z,24.90
2017-07-26T09:49:30.585Z,24.90
2017-07-26T09:51:58.899Z,24.90
2017-07-26T09:54:27.174Z,25.00
2017-07-26T09:56:55.440Z,24.90
2017-07-26T09:59:23.761Z,24.90
2017-07-26T10:01:52.815Z,24.90
2017-07-26T10:04:21.117Z,24.90
2017-07-26T10:06:49.398Z,25.00
2017-07-26T10:09:17.650Z,25.00
2017-07-26T10:11:45.901Z,25.00
2017-07-26T10:14:14.207Z,25.00
2017-07-26T10:16:42.315Z,25.00
2017-07-26T10:19:10.593Z,25.00
2017-07-26T10:21:38.910Z,25.00
2017-07-26T10:24:07.954Z,25.00
2017-07-26T10:26:36.242Z,25.00
2017-07-26T10:29:05.311Z,25.10
2017-07-26T10:31:33.556Z,25.10
2017-07-26T10:34:01.840Z,25.10
2017-07-26T10:36:30.864Z,25.20
2017-07-26T10:38:59.141Z,25.10
2017-07-26T10:41:27.425Z,25.20
2017-07-26T10:43:55.689Z,25.20
2017-07-26T10:46:23.946Z,25.20
2017-07-26T10:48:52.198Z,25.20
2017-07-26T10:51:20.465Z,25.20
2017-07-26T10:53:48.754Z,25.20
2017-07-26T10:56:17.042Z,25.20
2017-07-26T10:58:45.313Z,25.20
2017-07-26T11:01:13.598Z,25.20
2017-07-26T11:03:41.866Z,25.30
2017-07-26T11:06:10.162Z,25.30
2017-07-26T11:08:38.458Z,25.30
2017-07-26T11:11:06.769Z,25.30
2017-07-26T11:13:35.842Z,25.30
2017-07-26T11:16:04.975Z,25.30
2017-07-26T11:18:33.266Z,25.30
2017-07-26T11:21:01.559Z,25.40
2017-07-26T11:23:29.805Z,25.40
2017-07-26T11:25:58.820Z,25.40
2017-07-26T11:28:27.134Z,25.40
2017-07-26T11:30:56.195Z,25.40
2017-07-26T11:33:24.474Z,25.30
2017-07-26T11:35:53.510Z,25.40
2017-07-26T11:38:21.757Z,25.40
2017-07-26T11:40:50.034Z,25.40
2017-07-26T11:43:18.304Z,25.40
2017-07-26T11:45:46.591Z,25.40
2017-07-26T11:48:15.609Z,25.50
2017-07-26T11:50:43.932Z,25.40
2017-07-26T11:53:12.978Z,25.40
2017-07-26T11:55:41.234Z,25.40
2017-07-26T11:58:09.509Z,25.40
2017-07-26T12:00:37.778Z,25.40
2017-07-26T12:03:06.025Z,25.40
2017-07-26T12:05:34.331Z,25.40
2017-07-26T12:08:02.589Z,25.40
2017-07-26T12:10:30.835Z,25.50
2017-07-26T12:12:59.940Z,24.90
2017-07-26T12:15:28.217Z,24.90
2017-07-26T12:17:56.465Z,24.30
2017-07-26T12:20:24.728Z,23.90
2017-07-26T12:22:52.990Z,23.60
2017-07-26T12:25:21.239Z,23.40
2017-07-26T12:27:49.568Z,23.50
2017-07-26T12:30:18.580Z,23.80
2017-07-26T12:32:46.829Z,23.80
2017-07-26T12:35:15.096Z,24.00
2017-07-26T12:37:43.378Z,24.10
2017-07-26T12:40:11.643Z,24.30
2017-07-26T12:42:40.618Z,24.40
2017-07-26T12:45:08.872Z,24.50
2017-07-26T12:47:37.133Z,24.60
2017-07-26T12:50:05.431Z,24.60
2017-07-26T12:52:33.710Z,24.70
2017-07-26T12:55:01.968Z,24.80
2017-07-26T12:57:30.240Z,24.80
2017-07-26T12:59:58.492Z,24.90
2017-07-26T13:02:26.744Z,24.90
2017-07-26T13:04:55.819Z,25.00
2017-07-26T13:07:24.836Z,25.00
2017-07-26T13:09:53.080Z,25.00
2017-07-26T13:12:21.388Z,25.00
2017-07-26T13:14:49.648Z,25.00
2017-07-26T13:17:17.898Z,25.10
2017-07-26T13:19:46.194Z,25.10
2017-07-26T13:22:15.268Z,25.10
2017-07-26T13:24:44.218Z,25.10
2017-07-26T13:27:12.566Z,25.10
2017-07-26T13:29:40.808Z,25.20
2017-07-26T13:32:09.102Z,25.20
2017-07-26T13:34:37.396Z,25.20
2017-07-26T13:37:05.709Z,25.20
2017-07-26T13:39:33.994Z,25.20
2017-07-26T13:42:02.264Z,25.20
2017-07-26T13:44:31.281Z,25.20
2017-07-26T13:46:59.540Z,25.20
2017-07-26T13:49:27.864Z,25.20
2017-07-26T13:51:56.918Z,25.30
2017-07-26T13:54:25.187Z,25.20
2017-07-26T13:56:53.451Z,25.30
2017-07-26T13:59:21.696Z,25.30
2017-07-26T14:01:49.963Z,25.30
2017-07-26T14:04:18.225Z,25.30
2017-07-26T14:06:46.516Z,25.30
2017-07-26T14:09:14.797Z,25.20
2017-07-26T14:11:43.081Z,25.20
2017-07-26T14:14:11.358Z,25.30
2017-07-26T14:16:39.607Z,25.30
2017-07-26T14:19:07.860Z,25.30
2017-07-26T14:21:36.113Z,25.30
2017-07-26T14:24:04.367Z,25.30
2017-07-26T14:26:32.631Z,25.40
2017-07-26T14:29:00.914Z,25.40
2017-07-26T14:31:29.160Z,25.40
2017-07-26T14:33:57.436Z,25.40
2017-07-26T14:36:25.712Z,25.40
2017-07-26T14:38:54.778Z,25.50
2017-07-26T14:41:23.871Z,25.50
2017-07-26T14:43:52.926Z,25.50
2017-07-26T14:46:21.208Z,25.50
2017-07-26T14:48:50.248Z,25.50
2017-07-26T14:51:18.501Z,25.50
2017-07-26T14:53:46.788Z,25.50
2017-07-26T14:56:15.064Z,25.50
2017-07-26T14:58:44.114Z,25.50
2017-07-26T15:01:12.668Z,25.50
2017-07-26T15:03:41.952Z,25.50
2017-07-26T15:06:10.211Z,25.60
2017-07-26T15:08:38.493Z,25.50
2017-07-26T15:11:06.795Z,25.60
2017-07-26T15:13:35.045Z,25.60
2017-07-26T15:16:04.094Z,25.60
2017-07-26T15:18:32.360Z,25.60
2017-07-26T15:21:00.646Z,25.60
2017-07-26T15:23:28.958Z,25.70
2017-07-26T15:25:57.225Z,25.70
2017-07-26T15:28:25.510Z,25.70
2017-07-26T15:30:54.561Z,25.70
2017-07-26T15:33:22.829Z,25.70
2017-07-26T15:35:51.115Z,25.70
2017-07-26T15:38:20.129Z,25.70
2017-07-26T15:40:48.388Z,25.70
2017-07-26T15:43:16.665Z,25.70
2017-07-26T15:45:44.945Z,25.70
2017-07-26T15:48:13.254Z,25.80
2017-07-26T15:50:41.505Z,25.80
2017-07-26T15:53:09.761Z,25.80
2017-07-26T15:55:38.829Z,25.80
2017-07-26T15:58:07.844Z,25.80
2017-07-26T16:00:36.097Z,25.80
2017-07-26T16:03:04.401Z,25.80
2017-07-26T16:05:32.670Z,25.80
2017-07-26T16:08:00.950Z,25.80
2017-07-26T16:10:30.552Z,25.80
2017-07-26T16:13:01.509Z,25.80
2017-07-26T16:15:30.279Z,25.80
2017-07-26T16:17:58.740Z,25.90
2017-07-26T16:20:27.061Z,25.90
2017-07-26T16:22:55.317Z,25.80
2017-07-26T16:25:24.470Z,25.80
2017-07-26T16:27:53.734Z,25.80
2017-07-26T16:30:21.986Z,25.80
2017-07-26T16:32:50.282Z,25.80
2017-07-26T16:35:18.570Z,25.80
2017-07-26T16:37:46.827Z,25.80
2017-07-26T16:40:15.135Z,25.80
2017-07-26T16:42:43.394Z,25.80
2017-07-26T16:45:11.683Z,25.80
2017-07-26T16:47:39.987Z,25.80
2017-07-26T16:50:08.228Z,25.80
2017-07-26T16:52:36.519Z,25.80
2017-07-26T16:55:04.794Z,25.80
2017-07-26T16:57:33.084Z,25.80
2017-07-26T17:00:02.135Z,25.80
2017-07-26T17:02:30.404Z,25.80
2017-07-26T17:04:58.657Z,25.80
2017-07-26T17:07:27.093Z,25.80
2017-07-26T17:09:56.257Z,25.80
2017-07-26T17:12:24.563Z,25.80
2017-07-26T17:14:52.829Z,25.80
2017-07-26T17:17:21.142Z,25.80
2017-07-26T17:19:49.397Z,25.80
2017-07-26T17:22:18.586Z,25.80
2017-07-26T17:24:46.892Z,25.80
2017-07-26T17:27:15.145Z,25.80
2017-07-26T17:29:43.446Z,25.80
2017-07-26T17:32:11.738Z,25.80
2017-07-26T17:34:40.037Z,25.80
2017-07-26T17:37:08.317Z,25.80
2017-07-26T17:39:37.388Z,25.80
2017-07-26T17:42:05.636Z,25.70
2017-07-26T17:44:33.925Z,25.80
2017-07-26T17:47:03.251Z,25.80
2017-07-26T17:49:31.496Z,25.80
2017-07-26T17:51:59.797Z,25.80
2017-07-26T17:54:28.864Z,25.80
2017-07-26T17:56:57.144Z,25.80
2017-07-26T17:59:25.384Z,25.80
2017-07-26T18:01:53.695Z,25.80
2017-07-26T18:04:21.944Z,25.80
2017-07-26T18:06:50.991Z,25.80
2017-07-26T18:09:19.295Z,25.80
2017-07-26T18:11:47.672Z,25.80
2017-07-26T18:14:15.914Z,25.80
2017-07-26T18:16:44.185Z,25.80
2017-07-26T18:19:12.476Z,25.80
2017-07-26T18:21:40.768Z,25.80
2017-07-26T18:24:09.830Z,25.80
2017-07-26T18:26:38.082Z,25.80
2017-07-26T18:29:07.404Z,25.80
2017-07-26T18:31:36.470Z,25.80
2017-07-26T18:34:05.594Z,25.80
2017-07-26T18:36:33.664Z,25.80
2017-07-26T18:39:01.962Z,25.80
2017-07-26T18:41:31.021Z,25.80
2017-07-26T18:43:59.324Z,25.80
2017-07-26T18:46:30.807Z,25.80
2017-07-26T18:48:59.054Z,25.80
2017-07-26T18:51:27.326Z,25.80
2017-07-26T18:53:55.618Z,25.80
2017-07-26T18:56:24.661Z,25.80
2017-07-26T18:58:52.915Z,25.80
2017-07-26T19:01:21.197Z,25.80
2017-07-26T19:03:49.585Z,25.90
2017-07-26T19:06:18.640Z,25.90
2017-07-26T19:08:46.927Z,25.80
2017-07-26T19:11:15.943Z,25.90
2017-07-26T19:13:44.235Z,25.80
2017-07-26T19:16:12.505Z,25.90
2017-07-26T19:18:40.753Z,25.90
2017-07-26T19:21:09.000Z,25.90
2017-07-26T19:23:37.281Z,25.90
2017-07-26T19:26:05.581Z,25.90
2017-07-26T19:28:33.974Z,25.90
2017-07-26T19:31:02.294Z,25.90
2017-07-26T19:33:31.247Z,25.90
2017-07-26T19:36:00.306Z,25.80
2017-07-26T19:38:28.573Z,25.70
2017-07-26T19:40:56.863Z,25.70
2017-07-26T19:43:25.158Z,25.70
2017-07-26T19:45:53.426Z,25.70
2017-07-26T19:48:21.717Z,25.70
2017-07-26T19:50:50.018Z,25.70
2017-07-26T19:53:18.289Z,25.70
2017-07-26T19:55:46.554Z,25.70
2017-07-26T19:58:14.831Z,25.80
2017-07-26T20:00:43.113Z,25.80
2017-07-26T20:03:11.380Z,25.80
2017-07-26T20:05:39.667Z,25.80
2017-07-26T20:08:07.948Z,25.80
2017-07-26T20:10:36.235Z,25.80
2017-07-26T20:13:04.510Z,25.80
2017-07-26T20:15:32.813Z,25.80
2017-07-26T20:18:01.109Z,25.90
2017-07-26T20:20:29.200Z,25.90
2017-07-26T20:22:57.318Z,25.90
2017-07-26T20:25:25.586Z,25.90
2017-07-26T20:27:53.885Z,26.00
2017-07-26T20:30:22.958Z,26.00
2017-07-26T20:32:51.209Z,26.00
2017-07-26T20:35:19.723Z,26.00
2017-07-26T20:37:47.993Z,26.00
2017-07-26T20:40:16.245Z,26.00
2017-07-26T20:42:44.537Z,26.00
2017-07-26T20:45:12.836Z,26.10
2017-07-26T20:47:41.888Z,26.10
2017-07-26T20:50:10.166Z,26.10
2017-07-26T20:52:39.456Z,26.10
2017-07-26T20:55:08.464Z,26.20
2017-07-26T20:57:36.718Z,26.10
2017-07-26T21:00:05.061Z,25.70
2017-07-26T21:02:33.322Z,25.10
2017-07-26T21:05:01.634Z,24.50
2017-07-26T21:07:29.938Z,23.90
2017-07-26T21:09:59.002Z,23.10
2017-07-26T21:12:28.054Z,22.80
2017-07-26T21:14:56.341Z,22.80
2017-07-26T21:17:24.618Z,22.50
2017-07-26T21:19:53.673Z,22.20
2017-07-26T21:22:21.945Z,22.20
2017-07-26T21:24:50.990Z,22.30
2017-07-26T21:27:19.244Z,22.30
2017-07-26T21:29:47.557Z,22.50
2017-07-26T21:32:15.813Z,22.80
2017-07-26T21:34:44.068Z,23.10
2017-07-26T21:37:13.117Z,23.60
2017-07-26T21:39:41.375Z,23.50
2017-07-26T21:42:09.654Z,23.70
2017-07-26T21:44:38.745Z,24.10
2017-07-26T21:47:07.789Z,24.20
2017-07-26T21:49:36.075Z,24.10
2017-07-26T21:52:05.213Z,24.10
2017-07-26T21:54:33.461Z,24.10
2017-07-26T21:57:01.716Z,23.60
2017-07-26T21:59:30.058Z,23.20
2017-07-26T22:01:58.358Z,22.80
2017-07-26T22:04:26.648Z,22.50
2017-07-26T22:06:54.924Z,22.30
2017-07-26T22:09:23.965Z,21.90
2017-07-26T22:11:52.259Z,21.80
2017-07-26T22:14:21.349Z,21.60
2017-07-26T22:16:49.600Z,21.60
2017-07-26T22:19:18.658Z,21.40
2017-07-26T22:21:46.962Z,21.40
2017-07-26T22:24:15.246Z,21.20
2017-07-26T22:26:43.604Z,21.10
2017-07-26T22:29:11.889Z,21.00
2017-07-26T22:31:40.153Z,20.90
2017-07-26T22:34:08.458Z,20.80
2017-07-26T22:36:36.770Z,20.70
2017-07-26T22:39:04.563Z,20.70
2017-07-26T22:41:32.852Z,20.60
2017-07-26T22:44:01.183Z,20.60
2017-07-26T22:46:29.686Z,20.70
2017-07-26T22:48:57.970Z,20.90
2017-07-26T22:51:26.248Z,21.30
2017-07-26T22:53:55.304Z,21.80
2017-07-26T22:56:23.581Z,21.80
2017-07-26T22:58:52.611Z,22.40
2017-07-26T23:01:20.869Z,22.30
2017-07-26T23:03:49.310Z,22.50
2017-07-26T23:06:17.626Z,22.70
2017-07-26T23:08:45.864Z,22.80
2017-07-26T23:11:14.113Z,23.00
2017-07-26T23:13:42.380Z,23.10
2017-07-26T23:16:10.638Z,23.20
2017-07-26T23:18:38.935Z,23.30
2017-07-26T23:21:07.233Z,23.40
2017-07-26T23:23:35.522Z,23.50
2017-07-26T23:26:03.777Z,23.50
2017-07-26T23:28:32.078Z,23.60
2017-07-26T23:31:00.328Z,23.70
2017-07-26T23:33:28.572Z,23.70
2017-07-26T23:35:56.849Z,23.80
2017-07-26T23:38:25.109Z,23.90
2017-07-26T23:40:53.383Z,24.00
2017-07-26T23:43:22.459Z,24.10
2017-07-26T23:45:51.526Z,24.10
2017-07-26T23:48:19.817Z,24.10
2017-07-26T23:50:48.097Z,24.20
2017-07-26T23:53:16.371Z,24.30
2017-07-26T23:55:46.059Z,24.40
2017-07-26T23:58:14.362Z,24.40
